• Join FlightAware (Why Join?)
  • Login
  • US Flag 
05:51AM EDT


 

Airport Tracker/Info


-or-


 

Live Flight TrackerFlight Track Log ✈ CHQ5095 ✈ 08-Jul-2013 ✈ KHPN - KORD

Flight Track Log - Related Links

Times and Time Zones

All times are in EDT time to prevent confusion due to time zone crossing. See the CHQ5095 flight status page for this flight to view local times or setup timezone preferences in your user account.

Time Position Orientation Groundspeed Altitude Reporting Facility
EDT Latitude Longitude Course Direction KTS MPH feet Rate Location/Type
10:20AM 41.1000 -73.7500 270° West 179 206 2,200  Level New York TRACON
10:21AM 41.1167 -73.8333 285° West 237 273 3,800 2,040 Climbing New York TRACON
10:22AM 41.1333 -73.9333 283° West 254 292 6,300 2,460 Climbing New York TRACON
10:23AM 41.1694 -73.9986 306° West 251 289 8,900 2,040 Climbing New York Center
10:24AM 41.2156 -74.0697 311° West 251 289 10,500 1,380 Climbing New York Center
10:25AM 41.1167 -74.4813 270° West  Level FlightAware Approximate
10:25AM 41.2211 -74.1667 274° West 256 295 11,700  Level New York Center
10:26AM 41.2011 -74.2786 257° West 291 335 12,600 840 Climbing New York Center
10:27AM 41.1856 -74.3853 259° West 330 380 13,500 1,200 Climbing New York Center
10:28AM 41.1644 -74.5247 259° West 347 399 15,000 1,200 Climbing New York Center
10:29AM 41.1461 -74.6367 258° West 352 405 15,900 840 Climbing New York Center
10:30AM 41.1708 -74.7758 283° West 347 399 16,800 900 Climbing New York Center
10:31AM 41.2192 -74.8836 301° West 360 414 17,800 840 Climbing New York Center
10:32AM 41.2808 -75.0200 301° West 390 449 18,600 720 Climbing New York Center
10:33AM 41.3267 -75.1333 298° West 390 449 19,300 900 Climbing New York Center
10:34AM 41.3861 -75.2753 299° West 401 461 20,400 1,020 Climbing New York Center
10:35AM 41.4436 -75.4039 301° West 401 461 21,400 840 Climbing New York Center
10:36AM 41.4925 -75.5372 296° West 401 461 22,100 660 Climbing New York Center
10:37AM 41.5289 -75.6647 291° West 406 467 22,800 720 Climbing New York Center
10:38AM 41.5725 -75.8175 291° West 406 467 23,600 660 Climbing New York Center
10:39AM 41.6142 -75.9594 291° West 411 473 24,200 660 Climbing New York Center
10:40AM 41.6536 -76.1042 290° West 417 480 25,000 900 Climbing New York Center
10:41AM 41.6931 -76.2461 290° West 417 480 26,000 960 Climbing New York Center
10:42AM 41.7342 -76.3883 291° West 417 480 27,000 840 Climbing New York Center
10:43AM 41.7678 -76.5136 290° West 412 474 27,800 840 Climbing New York Center
10:44AM 41.8089 -76.6564 291° West 412 474 28,800 1,020 Climbing New York Center
10:45AM 41.8667 -76.8744 290° West 398 458 30,400 1,020 Climbing Cleveland Center
10:46AM 41.9067 -77.0172 291° West 405 466 31,400 960 Climbing Cleveland Center
10:47AM 41.9422 -77.1578 289° West 405 466 32,400 960 Climbing Cleveland Center
10:48AM 41.9842 -77.3036 291° West 405 466 33,400 960 Climbing Cleveland Center
10:49AM 42.0214 -77.4442 290° West 405 466 34,400 960 Climbing Cleveland Center
10:50AM 42.0586 -77.5906 289° West 405 466 35,400 780 Climbing Cleveland Center
10:51AM 42.0981 -77.7456 289° West 405 466 36,000 300 Climbing Cleveland Center
10:52AM 42.1392 -77.8919 291° West 405 466 36,000  Level Cleveland Center
10:53AM 42.1781 -78.0447 289° West 419 482 36,000  Level Cleveland Center
10:54AM 42.2189 -78.1972 290° West 424 488 36,000  Level Cleveland Center
10:55AM 42.2572 -78.3444 289° West 424 488 36,000  Level Cleveland Center
10:56AM 42.2953 -78.4892 290° West 419 482 36,000  Level Cleveland Center
10:57AM 42.3311 -78.6311 289° West 413 475 36,000  Level Cleveland Center
10:58AM 42.3689 -78.7761 289° West 413 475 36,000  Level Cleveland Center
10:59AM 42.4044 -78.9269 288° West 413 475 36,000  Level Cleveland Center
11:00AM 42.4400 -79.0722 288° West 413 475 36,000  Level Cleveland Center
11:01AM 42.4792 -79.2206 290° West 420 483 36,000  Level Cleveland Center
11:02AM 42.4978 -79.3781 279° West 420 483 36,000  Level Cleveland Center
11:03AM 42.5033 -79.5383 273° West 425 489 36,000  Level Cleveland Center
11:04AM 42.5131 -79.7017 275° West 425 489 36,000  Level Cleveland Center
11:05AM 42.5206 -79.8619 274° West 425 489 36,000  Level Cleveland Center
11:06AM 42.5233 -80.0028 272° West 425 489 36,000 -720 Level Cleveland Center
11:07AM 42.5325 -80.1633 274° West 407 468 34,600 -1,020 Descending Cleveland Center
11:08AM 42.5392 -80.3042 274° West 383 441 34,000 -300 Descending Cleveland Center
11:09AM 42.5436 -80.4394 273° West 370 426 34,000  Level Cleveland Center
11:10AM 42.5497 -80.5831 273° West 370 426 34,000  Level Cleveland Center
11:11AM 42.5561 -80.7269 273° West 375 432 34,000  Level Cleveland Center
11:12AM 42.5619 -80.8764 273° West 391 450 34,000  Level Cleveland Center
11:13AM 42.5678 -81.0258 273° West 402 463 34,000  Level Cleveland Center
11:14AM 42.5817 -81.1781 277° West 402 463 34,000  Level Cleveland Center
11:15AM 42.5953 -81.3222 277° West 402 463 34,000  Level Cleveland Center
11:16AM 42.6131 -81.4719 279° West 407 468 34,000  Level Cleveland Center
11:17AM 42.6264 -81.6244 277° West 407 468 34,000  Level Cleveland Center
11:18AM 42.6397 -81.7600 278° West 407 468 34,000  Level Cleveland Center
11:19AM 42.6547 -81.9100 278° West 407 468 34,000  Level Cleveland Center
11:20AM 42.6694 -82.0656 277° West 412 474 34,000  Level Cleveland Center
11:21AM 42.6842 -82.2214 277° West 412 474 34,000  Level Cleveland Center
11:22AM 42.6983 -82.3772 277° West 419 482 34,000  Level Cleveland Center
11:23AM 42.7125 -82.5358 277° West 419 482 34,000  Level Cleveland Center
11:24AM 42.7286 -82.6889 278° West 419 482 34,000  Level Cleveland Center
11:25AM 42.7422 -82.8478 277° West 424 488 34,000  Level Cleveland Center
11:26AM 42.7558 -83.0008 277° West 424 488 34,000  Level Cleveland Center
11:27AM 42.7711 -83.1542 278° West 424 488 34,000  Level Cleveland Center
11:28AM 42.7822 -83.3047 276° West 419 482 34,000  Level Cleveland Center
11:29AM 42.7969 -83.4750 277° West 414 476 34,000 -180 Level Cleveland Center
11:30AM 42.8097 -83.6256 277° West 409 471 33,700 -600 Descending Cleveland Center
11:31AM 42.8222 -83.7847 276° West 409 471 32,800 -900 Descending Cleveland Center
11:32AM 42.8344 -83.9411 276° West 415 478 32,000 -420 Descending Cleveland Center
11:33AM 42.8464 -84.0947 276° West 415 478 32,000  Level Cleveland Center
11:34AM 42.8583 -84.2456 276° West 409 471 32,000  Level Cleveland Center
11:36AM 42.8764 -84.4669 276° West 405 466 32,000  Level Chicago Center
11:37AM 42.8822 -84.6219 273° West 409 471 32,000  Level Chicago Center
11:38AM 42.8644 -84.7786 261° West 417 480 32,000  Level Chicago Center
11:39AM 42.8478 -84.9372 262° West 423 487 32,000  Level Chicago Center
11:40AM 42.8272 -85.1269 262° West 422 486 32,000  Level Chicago Center
11:41AM 42.8094 -85.2883 262° West 429 494 32,000 -480 Level Chicago Center
11:42AM 42.7925 -85.4494 262° West 429 494 31,100 -1,500 Descending Chicago Center
11:43AM 42.7678 -85.6083 258° West 429 494 29,000 -2,100 Descending Chicago Center
11:44AM 42.7383 -85.7661 256° West 427 491 26,800 -2,220 Descending Chicago Center
11:45AM 42.7103 -85.9228 256° West 424 488 24,500 -2,220 Descending Chicago Center
11:46AM 42.6828 -86.0750 256° West 414 476 22,300 -2,040 Descending Chicago Center
11:47AM 42.6553 -86.2225 256° West 404 465 20,300 -1,140 Descending Chicago Center
11:48AM 42.6286 -86.3636 256° West 388 447 20,000 -660 Descending Chicago Center
11:49AM 42.5967 -86.5294 255° West 378 435 19,000 -1,440 Descending Chicago Center
11:50AM 42.5697 -86.6736 256° West 391 450 17,100 -1,800 Descending Chicago Center
11:51AM 42.5400 -86.8083 253° West 377 434 15,300 -1,740 Descending Chicago Center
11:52AM 42.5056 -86.9356 250° West 364 419 13,600 -1,800 Descending Chicago Center
11:53AM 42.4711 -87.0583 249° West 351 404 11,600 -1,620 Descending Chicago Center
11:54AM 42.4422 -87.1639 250° West 308 354 10,300 -1,500 Descending Chicago Center
11:55AM 42.3864 -87.2447 227° Southwest 270 311 8,600 -1,560 Descending Chicago Center
11:56AM 42.3172 -87.2661 193° South 259 298 7,100 -1,740 Descending Chicago Center
11:57AM 42.2464 -87.2864 192° South 252 290 5,100 -1,260 Descending Chicago Center
11:58AM 42.1814 -87.3017 190° South 240 276 4,500 -540 Descending Chicago Center
11:59AM 42.1183 -87.3186 191° South 232 267 4,000 -300 Descending Chicago Center
12:00PM 42.0592 -87.3489 201° Southwest 228 262 4,000  Level Chicago Center
12:01PM 42.0183 -87.4058 226° Southwest 235 270 4,000  Level Chicago Center
12:02PM 42.0019 -87.5011 257° West 222 255 4,000  Level Chicago Center
12:04PM 42.0036 -87.5750 272° West 208 239 4,000  Level Chicago Center
12:05PM 42.0028 -87.6319 269° West 180 207 4,000  Level Chicago Center